Beehive, Montana
Current Conditions -  °F | °C
As of 3:53 PM on Wednesday 26 Nov 2014 (Local Time) from KLVM Reporting Station
Overcast Overcast  
Wind Chill: 28°   Ceiling: 7500
Heat Index: 28°   Visibility: 10mi
Dew Point: 25°   Wind: 3mph
Humidity: 88%   Direction: 70°ENE
Pressure: 30.11"   Gusts: NA
Location:  45.4577°N, 109.823°W
Report Text: KLVM 262253Z AUTO 07003KT 10SM BKN075 OVC110 M02/M04 A3011 RMK AO2 SLP238 T10221039
Loading
Personal Weather Stations






























Interactive Weather Map New forecast layout! Learn more

10-Day Weather Forecast

Advertisements
Track Severe Weather on mobile